createdAt,value
2023-04-15T00:01:04.546Z,82.51
2023-04-15T00:03:35.580Z,82.41
2023-04-15T00:06:06.898Z,82.63
2023-04-15T00:08:37.742Z,82.44
2023-04-15T00:11:09.966Z,82.79
2023-04-15T00:13:40.869Z,82.74
2023-04-15T00:16:12.399Z,82.68
2023-04-15T00:18:43.112Z,82.61
2023-04-15T00:21:13.783Z,82.58
2023-04-15T00:23:44.457Z,82.78
2023-04-15T00:26:15.068Z,82.85
2023-04-15T00:28:45.675Z,83.06
2023-04-15T00:31:16.737Z,82.91
2023-04-15T00:33:47.362Z,82.70
2023-04-15T00:36:18.195Z,82.83
2023-04-15T00:38:48.919Z,82.78
2023-04-15T00:41:21.102Z,82.81
2023-04-15T00:43:51.628Z,82.99
2023-04-15T00:46:23.682Z,82.97
2023-04-15T00:48:55.118Z,83.00
2023-04-15T00:51:26.293Z,83.01
2023-04-15T00:53:56.881Z,83.07
2023-04-15T00:56:28.693Z,83.28
2023-04-15T00:59:00.381Z,83.11
2023-04-15T01:01:30.951Z,83.54
2023-04-15T01:04:01.897Z,83.55
2023-04-15T01:06:33.643Z,83.76
2023-04-15T01:09:04.211Z,83.97
2023-04-15T01:11:35.343Z,84.07
2023-04-15T01:14:07.292Z,84.37
2023-04-15T01:16:39.708Z,84.36
2023-04-15T01:19:12.132Z,84.57
2023-04-15T01:21:43.208Z,84.71
2023-04-15T01:24:14.709Z,84.62
2023-04-15T01:26:46.626Z,84.84
2023-04-15T01:29:17.570Z,85.22
2023-04-15T01:31:54.020Z,85.29
2023-04-15T01:34:24.622Z,85.38
2023-04-15T01:36:55.273Z,85.76
2023-04-15T01:39:26.235Z,86.07
2023-04-15T01:41:57.220Z,86.24
2023-04-15T01:44:27.732Z,86.59
2023-04-15T01:46:58.550Z,86.92
2023-04-15T01:49:29.831Z,87.25
2023-04-15T01:52:00.673Z,87.10
2023-04-15T01:54:31.416Z,87.45
2023-04-15T01:57:05.549Z,87.78
2023-04-15T01:59:36.138Z,87.94
2023-04-15T02:02:06.827Z,88.25
2023-04-15T02:04:37.588Z,88.29
2023-04-15T02:07:08.586Z,88.16
2023-04-15T02:09:39.179Z,88.39
2023-04-15T02:12:09.808Z,88.61
2023-04-15T02:14:40.285Z,88.83
2023-04-15T02:17:10.751Z,88.80
2023-04-15T02:19:41.406Z,88.69
2023-04-15T02:22:18.542Z,88.96
2023-04-15T02:24:49.745Z,89.02
2023-04-15T02:27:20.918Z,89.16
2023-04-15T02:29:51.323Z,89.16
2023-04-15T02:32:24.333Z,89.40
2023-04-15T02:34:54.799Z,89.84
2023-04-15T02:37:27.510Z,90.03
2023-04-15T02:39:58.185Z,90.20
2023-04-15T02:42:30.235Z,90.16
2023-04-15T02:45:01.024Z,90.24
2023-04-15T02:47:31.561Z,90.42
2023-04-15T02:50:02.082Z,90.40
2023-04-15T02:52:32.622Z,90.38
2023-04-15T02:55:04.453Z,90.63
2023-04-15T02:57:37.143Z,90.84
2023-04-15T03:00:10.095Z,90.81
2023-04-15T03:02:42.216Z,91.05
2023-04-15T03:05:15.966Z,91.15
2023-04-15T03:07:46.730Z,91.38
2023-04-15T03:10:17.626Z,91.66
2023-04-15T03:12:48.478Z,92.18
2023-04-15T03:15:20.512Z,92.45
2023-04-15T03:17:51.552Z,92.55
2023-04-15T03:20:22.372Z,92.94
2023-04-15T03:22:53.340Z,93.47
2023-04-15T03:25:24.189Z,93.65
2023-04-15T03:27:54.625Z,93.69
2023-04-15T03:30:25.360Z,94.07
2023-04-15T03:32:58.939Z,94.21
2023-04-15T03:35:29.417Z,94.93
2023-04-15T03:38:01.064Z,95.60
2023-04-15T03:40:31.768Z,96.38
2023-04-15T03:43:02.238Z,96.80
2023-04-15T03:45:33.292Z,97.80
2023-04-15T03:48:16.708Z,98.38
2023-04-15T03:50:48.580Z,99.32
2023-04-15T03:53:19.053Z,99.57
2023-04-15T03:55:49.614Z,99.45
2023-04-15T03:58:20.550Z,99.50
2023-04-15T04:00:51.352Z,99.35
2023-04-15T04:03:24.092Z,99.34
2023-04-15T04:05:55.290Z,99.27
2023-04-15T04:08:27.621Z,99.33
2023-04-15T04:10:58.118Z,99.06
2023-04-15T04:13:28.796Z,99.00
2023-04-15T04:16:02.122Z,99.05
2023-04-15T04:18:33.645Z,99.24
2023-04-15T04:21:04.712Z,99.30
2023-04-15T04:23:35.786Z,99.66
2023-04-15T04:26:07.317Z,99.64
2023-04-15T04:28:40.528Z,99.79
2023-04-15T04:31:11.492Z,99.78
2023-04-15T04:33:43.176Z,99.81
2023-04-15T04:36:14.529Z,100.00
2023-04-15T04:38:45.563Z,100.00
2023-04-15T04:41:16.722Z,100.00
2023-04-15T04:43:48.240Z,100.00
2023-04-15T04:46:20.631Z,100.00
2023-04-15T04:48:52.154Z,100.00
2023-04-15T04:51:22.932Z,100.00
2023-04-15T04:53:58.100Z,100.00
2023-04-15T04:56:29.622Z,100.00
2023-04-15T04:59:00.848Z,100.00
2023-04-15T05:01:32.638Z,100.00
2023-04-15T05:04:05.349Z,100.00
2023-04-15T05:06:37.196Z,100.00
2023-04-15T05:09:09.186Z,100.00
2023-04-15T05:11:40.454Z,100.00
2023-04-15T05:14:11.710Z,100.00
2023-04-15T05:16:44.908Z,100.00
2023-04-15T05:19:16.665Z,100.00
2023-04-15T05:21:48.411Z,100.00
2023-04-15T05:24:19.389Z,100.00
2023-04-15T05:26:52.050Z,100.00
2023-04-15T05:29:23.801Z,100.00
2023-04-15T05:31:55.593Z,100.00
2023-04-15T05:34:27.994Z,100.00
2023-04-15T05:36:59.465Z,100.00
2023-04-15T05:39:32.609Z,100.00
2023-04-15T05:42:08.776Z,100.00
2023-04-15T05:44:40.338Z,100.00
2023-04-15T05:47:13.784Z,100.00
2023-04-15T05:49:45.754Z,100.00
2023-04-15T05:52:19.660Z,100.00
2023-04-15T05:54:50.980Z,100.00
2023-04-15T05:57:23.572Z,100.00
2023-04-15T05:59:55.852Z,100.00
2023-04-15T06:02:29.387Z,100.00
2023-04-15T06:05:01.982Z,100.00
2023-04-15T06:07:36.137Z,100.00
2023-04-15T06:10:09.600Z,100.00
2023-04-15T06:12:40.920Z,100.00
2023-04-15T06:15:12.922Z,100.00
2023-04-15T06:17:46.182Z,100.00
2023-04-15T06:20:18.319Z,100.00
2023-04-15T06:22:50.370Z,100.00
2023-04-15T06:25:21.710Z,100.00
2023-04-15T06:27:57.153Z,100.00
2023-04-15T06:30:29.698Z,100.00
2023-04-15T06:33:06.333Z,100.00
2023-04-15T06:35:42.295Z,100.00
2023-04-15T06:38:13.190Z,100.00
2023-04-15T06:40:44.236Z,100.00
2023-04-15T06:43:16.297Z,100.00
2023-04-15T06:45:48.173Z,100.00
2023-04-15T06:48:19.453Z,100.00
2023-04-15T06:50:50.782Z,100.00
2023-04-15T06:53:24.783Z,100.00
2023-04-15T06:55:56.597Z,100.00
2023-04-15T06:58:27.747Z,100.00
2023-04-15T07:00:58.886Z,100.00
2023-04-15T07:03:32.643Z,100.00
2023-04-15T07:06:08.652Z,100.00
2023-04-15T07:08:40.015Z,100.00
2023-04-15T07:11:12.389Z,100.00
2023-04-15T07:13:44.240Z,100.00
2023-04-15T07:16:16.511Z,100.00
2023-04-15T07:18:47.798Z,100.00
2023-04-15T07:21:19.424Z,100.00
2023-04-15T07:23:51.201Z,100.00
2023-04-15T07:26:26.301Z,100.00
2023-04-15T07:28:58.917Z,100.00
2023-04-15T07:31:30.089Z,100.00
2023-04-15T07:34:03.013Z,100.00
2023-04-15T07:36:33.848Z,100.00
2023-04-15T07:39:06.226Z,100.00
2023-04-15T07:41:41.808Z,100.00
2023-04-15T07:44:13.234Z,100.00
2023-04-15T07:46:44.611Z,100.00
2023-04-15T07:49:15.651Z,100.00
2023-04-15T07:51:46.894Z,100.00
2023-04-15T07:54:17.754Z,100.00
2023-04-15T07:56:49.098Z,100.00
2023-04-15T07:59:23.153Z,100.00
2023-04-15T08:01:55.674Z,100.00
2023-04-15T08:04:26.375Z,100.00
2023-04-15T08:06:57.994Z,100.00
2023-04-15T08:09:28.822Z,100.00
2023-04-15T08:11:59.179Z,100.00
2023-04-15T08:14:30.263Z,100.00
2023-04-15T08:17:00.688Z,100.00
2023-04-15T08:19:31.730Z,100.00
2023-04-15T08:22:02.665Z,100.00
2023-04-15T08:24:33.949Z,100.00
2023-04-15T08:27:05.811Z,100.00
2023-04-15T08:29:36.683Z,100.00
2023-04-15T08:32:08.573Z,100.00
2023-04-15T08:34:39.351Z,100.00
2023-04-15T08:37:11.416Z,100.00
2023-04-15T08:39:44.097Z,100.00
2023-04-15T08:42:20.974Z,100.00
2023-04-15T08:44:52.244Z,100.00
2023-04-15T08:47:25.955Z,100.00
2023-04-15T08:49:59.554Z,100.00
2023-04-15T08:52:32.243Z,100.00
2023-04-15T08:55:04.828Z,100.00
2023-04-15T08:57:36.827Z,100.00
2023-04-15T09:00:10.329Z,100.00
2023-04-15T09:02:41.622Z,100.00
2023-04-15T09:05:12.891Z,100.00
2023-04-15T09:07:43.337Z,100.00
2023-04-15T09:10:14.774Z,100.00
2023-04-15T09:12:45.346Z,100.00
2023-04-15T09:15:16.765Z,100.00
2023-04-15T09:17:48.656Z,100.00
2023-04-15T09:20:20.475Z,100.00
2023-04-15T09:22:51.991Z,100.00
2023-04-15T09:25:34.857Z,100.00
2023-04-15T09:28:05.884Z,100.00
2023-04-15T09:30:36.703Z,100.00
2023-04-15T09:33:08.563Z,100.00
2023-04-15T09:35:39.930Z,100.00
2023-04-15T09:38:12.808Z,100.00
2023-04-15T09:40:44.451Z,100.00
2023-04-15T09:43:16.747Z,100.00
2023-04-15T09:45:52.382Z,100.00
2023-04-15T09:48:26.999Z,100.00
2023-04-15T09:51:00.548Z,100.00
2023-04-15T09:53:34.069Z,100.00
2023-04-15T09:56:08.905Z,100.00
2023-04-15T09:58:41.556Z,100.00
2023-04-15T10:01:15.027Z,100.00
2023-04-15T10:03:46.682Z,100.00
2023-04-15T10:06:17.983Z,100.00
2023-04-15T10:08:49.011Z,100.00
2023-04-15T10:11:21.151Z,100.00
2023-04-15T10:13:52.394Z,100.00
2023-04-15T10:16:24.200Z,100.00
2023-04-15T10:18:58.454Z,100.00
2023-04-15T10:21:32.133Z,100.00
2023-04-15T10:24:04.631Z,100.00
2023-04-15T10:26:35.740Z,100.00
2023-04-15T10:29:06.582Z,100.00
2023-04-15T10:31:38.410Z,100.00
2023-04-15T10:34:09.862Z,100.00
2023-04-15T10:36:40.332Z,100.00
2023-04-15T10:39:42.909Z,100.00
2023-04-15T10:42:15.277Z,100.00
2023-04-15T10:44:47.046Z,100.00
2023-04-15T10:47:20.023Z,100.00
2023-04-15T10:49:52.956Z,100.00
2023-04-15T10:52:27.733Z,100.00
2023-04-15T10:55:14.207Z,100.00
2023-04-15T10:57:45.666Z,100.00
2023-04-15T11:00:18.440Z,100.00
2023-04-15T11:02:53.048Z,100.00
2023-04-15T11:05:47.024Z,100.00
2023-04-15T11:08:17.743Z,100.00
2023-04-15T11:10:57.414Z,100.00
2023-04-15T11:13:34.243Z,100.00
2023-04-15T11:16:06.465Z,100.00
2023-04-15T11:18:37.925Z,100.00
2023-04-15T11:21:09.941Z,100.00
2023-04-15T11:23:44.157Z,100.00
2023-04-15T11:26:15.425Z,100.00
2023-04-15T11:28:46.952Z,100.00
2023-04-15T11:31:19.915Z,100.00
2023-04-15T11:33:58.225Z,100.00
2023-04-15T11:36:30.205Z,100.00
2023-04-15T11:39:01.679Z,100.00
2023-04-15T11:41:32.684Z,100.00
2023-04-15T11:44:03.827Z,100.00
2023-04-15T11:46:34.750Z,100.00
2023-04-15T11:49:05.815Z,100.00
2023-04-15T11:51:37.004Z,100.00
2023-04-15T11:54:07.566Z,100.00
2023-04-15T11:56:38.170Z,100.00
2023-04-15T11:59:08.613Z,100.00
2023-04-15T12:01:42.327Z,100.00
2023-04-15T12:04:17.014Z,100.00
2023-04-15T12:06:47.668Z,100.00
2023-04-15T12:09:20.221Z,100.00
2023-04-15T12:11:52.868Z,100.00
2023-04-15T12:14:30.353Z,100.00
2023-04-15T12:17:02.915Z,100.00
2023-04-15T12:19:36.665Z,100.00
2023-04-15T12:22:10.518Z,100.00
2023-04-15T12:24:42.423Z,100.00
2023-04-15T12:27:14.838Z,100.00
2023-04-15T12:29:45.896Z,100.00
2023-04-15T12:32:19.768Z,100.00
2023-04-15T12:34:54.422Z,100.00
2023-04-15T12:37:26.062Z,100.00
2023-04-15T12:39:57.287Z,100.00
2023-04-15T12:42:27.698Z,100.00
2023-04-15T12:44:59.281Z,100.00
2023-04-15T12:47:30.529Z,100.00
2023-04-15T12:50:01.764Z,100.00
2023-04-15T12:52:32.854Z,100.00
2023-04-15T12:55:03.787Z,99.94
2023-04-15T12:57:34.371Z,99.48
2023-04-15T13:00:07.998Z,99.47
2023-04-15T13:02:39.501Z,99.70
2023-04-15T13:05:11.116Z,99.19
2023-04-15T13:07:42.288Z,98.94
2023-04-15T13:10:13.660Z,98.92
2023-04-15T13:12:46.808Z,98.04
2023-04-15T13:15:20.716Z,97.46
2023-04-15T13:17:51.623Z,97.44
2023-04-15T13:20:23.042Z,97.49
2023-04-15T13:22:55.332Z,97.36
2023-04-15T13:25:27.742Z,97.50
2023-04-15T13:27:58.611Z,97.66
2023-04-15T13:30:29.286Z,97.59
2023-04-15T13:32:59.873Z,97.46
2023-04-15T13:35:31.106Z,97.14
2023-04-15T13:38:02.022Z,96.88
2023-04-15T13:40:32.573Z,96.84
2023-04-15T13:43:03.349Z,97.00
2023-04-15T13:45:34.114Z,97.46
2023-04-15T13:48:04.867Z,97.38
2023-04-15T13:50:35.276Z,96.96
2023-04-15T13:53:06.254Z,97.32
2023-04-15T13:55:41.476Z,97.13
2023-04-15T13:58:12.160Z,97.17
2023-04-15T14:00:42.596Z,97.43
2023-04-15T14:03:13.493Z,97.00
2023-04-15T14:05:44.101Z,96.30
2023-04-15T14:08:15.166Z,95.81
2023-04-15T14:10:48.356Z,95.12
2023-04-15T14:13:19.494Z,94.56
2023-04-15T14:15:50.409Z,94.23
2023-04-15T14:18:21.243Z,94.42
2023-04-15T14:20:52.216Z,94.76
2023-04-15T14:23:23.383Z,94.89
2023-04-15T14:25:54.528Z,94.75
2023-04-15T14:28:25.441Z,94.65
2023-04-15T14:30:56.119Z,94.39
2023-04-15T14:33:26.992Z,94.86
2023-04-15T14:35:57.474Z,94.87
2023-04-15T14:38:28.594Z,94.68
2023-04-15T14:40:59.354Z,94.70
2023-04-15T14:43:30.282Z,94.72
2023-04-15T14:46:01.136Z,94.70
2023-04-15T14:48:32.087Z,94.64
2023-04-15T14:51:02.609Z,94.08
2023-04-15T14:53:33.184Z,94.30
2023-04-15T14:56:03.977Z,94.16
2023-04-15T14:58:34.752Z,94.00
2023-04-15T15:01:05.887Z,94.08
2023-04-15T15:03:37.115Z,93.99
2023-04-15T15:06:07.951Z,93.88
2023-04-15T15:08:38.982Z,93.83
2023-04-15T15:11:09.455Z,93.73
2023-04-15T15:13:40.562Z,93.39
2023-04-15T15:16:13.829Z,93.08
2023-04-15T15:18:45.430Z,92.61
2023-04-15T15:21:15.786Z,92.56
2023-04-15T15:23:48.214Z,92.43
2023-04-15T15:26:19.435Z,92.08
2023-04-15T15:28:50.856Z,91.81
2023-04-15T15:31:21.447Z,91.69
2023-04-15T15:33:52.847Z,91.55
2023-04-15T15:36:23.396Z,91.51
2023-04-15T15:38:54.391Z,91.41
2023-04-15T15:41:25.511Z,91.21
2023-04-15T15:43:56.051Z,91.05
2023-04-15T15:46:28.093Z,91.14
2023-04-15T15:48:58.821Z,90.80
2023-04-15T15:51:29.204Z,90.72
2023-04-15T15:53:59.721Z,90.70
2023-04-15T15:56:33.159Z,90.50
2023-04-15T15:59:04.516Z,90.36
2023-04-15T16:01:35.512Z,90.19
2023-04-15T16:04:06.475Z,89.98
2023-04-15T16:06:37.078Z,89.82
2023-04-15T16:09:08.100Z,89.47
2023-04-15T16:11:38.726Z,89.14
2023-04-15T16:14:09.612Z,89.28
2023-04-15T16:16:43.038Z,89.00
2023-04-15T16:19:13.464Z,89.05
2023-04-15T16:21:45.727Z,89.25
2023-04-15T16:24:16.212Z,89.18
2023-04-15T16:26:47.236Z,89.21
2023-04-15T16:29:17.706Z,89.04
2023-04-15T16:31:49.518Z,89.03
2023-04-15T16:34:20.443Z,89.10
2023-04-15T16:36:51.146Z,89.11
2023-04-15T16:39:23.146Z,89.06
2023-04-15T16:41:54.408Z,88.83
2023-04-15T16:44:25.137Z,88.63
2023-04-15T16:46:55.746Z,88.26
2023-04-15T16:49:26.284Z,87.83
2023-04-15T16:51:56.983Z,87.42
2023-04-15T16:54:29.058Z,87.48
2023-04-15T16:56:59.929Z,87.57
2023-04-15T16:59:30.477Z,87.54
2023-04-15T17:02:01.301Z,87.33
2023-04-15T17:04:31.871Z,87.17
2023-04-15T17:07:02.967Z,86.87
2023-04-15T17:09:33.841Z,87.01
2023-04-15T17:12:04.704Z,87.14
2023-04-15T17:14:35.607Z,87.33
2023-04-15T17:17:08.254Z,87.21
2023-04-15T17:19:40.327Z,87.33
2023-04-15T17:22:12.864Z,87.35
2023-04-15T17:24:45.748Z,87.43
2023-04-15T17:27:19.454Z,87.32
2023-04-15T17:29:52.050Z,87.38
2023-04-15T17:32:24.674Z,87.38
2023-04-15T17:34:58.357Z,87.44
2023-04-15T17:37:31.022Z,87.52
2023-04-15T17:40:08.004Z,87.55
2023-04-15T17:42:44.917Z,87.66
2023-04-15T17:45:19.358Z,87.58
2023-04-15T17:47:52.094Z,87.55
2023-04-15T17:50:24.752Z,87.53
2023-04-15T17:52:58.808Z,87.64
2023-04-15T17:55:35.757Z,87.64
2023-04-15T17:58:08.581Z,87.67
2023-04-15T18:00:40.214Z,87.66
2023-04-15T18:03:13.508Z,87.76
2023-04-15T18:05:49.068Z,87.89
2023-04-15T18:08:21.189Z,87.96
2023-04-15T18:10:54.592Z,87.80
2023-04-15T18:13:27.072Z,87.93
2023-04-15T18:16:11.448Z,87.87
2023-04-15T18:18:44.395Z,87.84
2023-04-15T18:21:17.136Z,87.84
2023-04-15T18:23:50.025Z,87.88
2023-04-15T18:26:22.898Z,88.02
2023-04-15T18:28:55.637Z,88.09
2023-04-15T18:31:28.605Z,87.93
2023-04-15T18:34:01.497Z,87.90
2023-04-15T18:36:34.678Z,87.77
2023-04-15T18:39:07.671Z,87.76
2023-04-15T18:41:38.751Z,87.62
2023-04-15T18:44:10.474Z,87.39
2023-04-15T18:46:42.980Z,87.11
2023-04-15T18:49:14.479Z,86.97
2023-04-15T18:51:45.292Z,86.83
2023-04-15T18:54:15.953Z,86.83
2023-04-15T18:56:47.832Z,86.81
2023-04-15T18:59:29.118Z,86.74
2023-04-15T19:02:01.469Z,86.74
2023-04-15T19:04:32.237Z,86.88
2023-04-15T19:07:02.907Z,86.84
2023-04-15T19:09:33.983Z,86.81
2023-04-15T19:12:04.937Z,87.01
2023-04-15T19:14:35.418Z,86.90
2023-04-15T19:17:06.163Z,86.89
2023-04-15T19:19:36.660Z,86.95
2023-04-15T19:22:07.335Z,86.93
2023-04-15T19:24:38.252Z,86.86
2023-04-15T19:27:09.087Z,86.79
2023-04-15T19:29:39.585Z,86.79
2023-04-15T19:32:10.179Z,86.78
2023-04-15T19:34:40.868Z,86.80
2023-04-15T19:37:12.058Z,86.83
2023-04-15T19:39:43.109Z,86.75
2023-04-15T19:42:13.848Z,86.86
2023-04-15T19:44:44.292Z,86.86
2023-04-15T19:47:15.015Z,86.85
2023-04-15T19:49:45.821Z,86.86
2023-04-15T19:52:16.674Z,86.92
2023-04-15T19:54:47.638Z,86.94
2023-04-15T19:57:18.406Z,87.02
2023-04-15T19:59:49.340Z,87.10
2023-04-15T20:02:20.128Z,87.08
2023-04-15T20:04:51.543Z,87.18
2023-04-15T20:07:22.326Z,87.39
2023-04-15T20:09:52.892Z,87.48
2023-04-15T20:12:50.108Z,87.54
2023-04-15T20:15:14.051Z,87.67
2023-04-15T20:17:44.639Z,87.71
2023-04-15T20:20:15.109Z,87.78
2023-04-15T20:22:46.187Z,87.87
2023-04-15T20:25:16.748Z,87.99
2023-04-15T20:27:47.507Z,88.15
2023-04-15T20:30:17.944Z,88.27
2023-04-15T20:32:48.409Z,88.36
2023-04-15T20:35:19.709Z,88.48
2023-04-15T20:37:51.189Z,88.56
2023-04-15T20:40:22.140Z,88.64
2023-04-15T20:42:52.954Z,88.79
2023-04-15T20:45:23.328Z,88.75
2023-04-15T20:47:54.753Z,88.83
2023-04-15T20:50:25.308Z,88.95
2023-04-15T20:52:56.141Z,88.98
2023-04-15T20:55:28.375Z,89.02
2023-04-15T20:58:01.224Z,89.09
2023-04-15T21:00:32.997Z,89.19
2023-04-15T21:03:03.762Z,89.15
2023-04-15T21:05:34.230Z,89.22
2023-04-15T21:08:05.051Z,89.18
2023-04-15T21:10:36.200Z,89.31
2023-04-15T21:13:06.735Z,89.35
2023-04-15T21:15:37.466Z,89.35
2023-04-15T21:18:08.490Z,89.35
2023-04-15T21:20:39.156Z,89.42
2023-04-15T21:23:11.261Z,89.48
2023-04-15T21:25:43.011Z,89.44
2023-04-15T21:28:13.762Z,89.52
2023-04-15T21:30:45.513Z,89.51
2023-04-15T21:33:16.285Z,89.58
2023-04-15T21:35:47.452Z,89.59
2023-04-15T21:38:17.941Z,89.66
2023-04-15T21:40:50.541Z,89.71
2023-04-15T21:43:22.771Z,89.72
2023-04-15T21:46:23.174Z,89.68
2023-04-15T21:48:44.464Z,89.70
2023-04-15T21:51:15.281Z,89.86
2023-04-15T21:53:46.072Z,89.87
2023-04-15T21:56:16.832Z,89.83
2023-04-15T21:58:47.221Z,89.89
2023-04-15T22:01:18.061Z,89.98
2023-04-15T22:03:48.813Z,90.12
2023-04-15T22:06:20.411Z,90.20
2023-04-15T22:08:56.672Z,90.26
2023-04-15T22:11:29.505Z,90.30
2023-04-15T22:14:00.613Z,90.30
2023-04-15T22:16:31.225Z,90.58
2023-04-15T22:19:02.522Z,90.44
2023-04-15T22:21:32.969Z,90.63
2023-04-15T22:24:38.391Z,90.60
2023-04-15T22:26:54.091Z,90.76
2023-04-15T22:29:24.818Z,90.94
2023-04-15T22:31:55.264Z,91.31
2023-04-15T22:34:26.097Z,91.40
2023-04-15T22:36:59.152Z,91.46
2023-04-15T22:39:32.027Z,91.74
2023-04-15T22:42:04.171Z,91.91
2023-04-15T22:44:36.225Z,92.10
2023-04-15T22:47:08.977Z,92.20
2023-04-15T22:49:41.628Z,92.53
2023-04-15T22:52:23.422Z,92.74
2023-04-15T22:54:59.558Z,92.82
2023-04-15T22:57:30.941Z,93.03
2023-04-15T23:00:02.664Z,93.32
2023-04-15T23:02:33.368Z,93.54
2023-04-15T23:05:06.285Z,93.62
2023-04-15T23:07:43.499Z,93.61
2023-04-15T23:10:14.287Z,93.68
2023-04-15T23:12:44.889Z,93.71
2023-04-15T23:15:15.807Z,93.79
2023-04-15T23:17:46.186Z,93.89
2023-04-15T23:20:16.755Z,94.01
2023-04-15T23:22:47.653Z,94.15
2023-04-15T23:25:22.097Z,94.31
2023-04-15T23:27:52.496Z,94.42
2023-04-15T23:30:23.340Z,94.48
2023-04-15T23:32:53.798Z,94.62
2023-04-15T23:35:24.450Z,94.61
2023-04-15T23:37:55.937Z,94.57
2023-04-15T23:40:26.849Z,94.72
2023-04-15T23:42:57.263Z,94.83
2023-04-15T23:45:27.934Z,94.79
2023-04-15T23:47:58.313Z,94.84
2023-04-15T23:50:29.437Z,94.86
2023-04-15T23:53:00.155Z,94.99
2023-04-15T23:55:31.658Z,94.71
2023-04-15T23:58:02.425Z,94.85
